Bothnia — PBLG — position and weather

sailwx.info

Track history (hours):
 
Tides and Currents Weather Stations Pressure Air Temp Water Temp Dewpoint Dewpoint Depression Visibility Wind Speed Wind Dir Waves Ship Positions

Bothnia

Last reported at 2017-Mar-27 20:33 UTC. Time now 2017-Mar-29 09:22 UTC.
Position N 58°37' E 012°43'.

Length 82 m; draft 4.5 m.

Type: Cargo ship. MMSI: 244741000.

Date/timePositionNaut miles runAvg speedWind from/ knotsBaromVisibWave heightAir tempDewpointWater temp
2017-Mar-27 20:33N 58°37' E 012°43'1111.3
2017-Mar-27 19:33N 58°29' E 012°30'9 8.7
2017-Mar-27 18:33N 58°22' E 012°19'3 2.7
2017-Mar-27 17:33N 58°19' E 012°19'4 3.7
2017-Mar-27 16:33N 58°16' E 012°16'0 0.3
2017-Mar-27 15:33N 58°16' E 012°15'5 5.3
2017-Mar-27 14:34N 58°12' E 012°08'6 4.7
2017-Mar-27 13:12N 58°06' E 012°09'5 8.3
2017-Mar-27 12:33N 58°00' E 012°08'8 8.5
2017-Mar-27 11:33N 57°53' E 012°02'6 6.3
2017-Mar-27 10:33N 57°46' E 012°00'5 5.5
2017-Mar-27 09:33N 57°42' E 011°55'9 9.0
2017-Mar-27 08:33N 57°37' E 011°41'10 9.7
2017-Mar-27 07:33N 57°27' E 011°41'9 9.2
2017-Mar-27 06:33N 57°19' E 011°48'5610.7
2017-Mar-27 01:18N 56°25' E 012°21'911.6
2017-Mar-27 00:33N 56°17' E 012°25'1211.7
2017-Mar-26 23:33N 56°06' E 012°34'1110.6
2017-Mar-26 22:34N 55°57' E 012°43'1111.0
2017-Mar-26 21:33N 55°46' E 012°42'1111.2
2017-Mar-26 20:34N 55°35' E 012°42'1111.2
2017-Mar-26 19:33N 55°24' E 012°41'9 9.1
2017-Mar-26 18:34N 55°16' E 012°51'1110.8
2017-Mar-26 17:33N 55°15' E 013°10'1111.2
2017-Mar-26 16:33N 55°15' E 013°29'1111.0
2017-Mar-26 15:32N 55°14' E 013°49'1111.4
2017-Mar-26 14:33N 55°14' E 014°09'1010.4
2017-Mar-26 13:33N 55°19' E 014°25'1110.9
2017-Mar-26 12:33N 55°27' E 014°38'1110.8
2017-Mar-26 11:34N 55°32' E 014°54'1111.1
2017-Mar-26 10:33N 55°38' E 015°11'1111.3
2017-Mar-26 09:34N 55°43' E 015°28'1111.3
2017-Mar-26 08:33N 55°49' E 015°46'1111.4
2017-Mar-26 07:33N 55°55' E 016°03'1111.4
2017-Mar-26 06:33N 56°00' E 016°21'1211.5
2017-Mar-26 05:33N 56°06' E 016°39'1111.4
2017-Mar-26 04:33N 56°13' E 016°55'36611.1
2017-Mar-24 19:33N 60°01' E 025°58'1111.2
2017-Mar-24 18:33N 60°08' E 026°15'1110.7
2017-Mar-24 17:33N 60°16' E 026°29'1111.3
2017-Mar-24 16:33N 60°22' E 026°48'10 9.7
2017-Mar-24 15:33N 60°24' E 027°07'8 8.1
2017-Mar-24 14:33N 60°32' E 027°10'0 0.0
2017-Mar-22 12:17N 60°32' E 027°10'0 0.0
2017-Mar-22 11:32N 60°32' E 027°10'1 0.7
2017-Mar-22 10:33N 60°32' E 027°11'1 0.5
2017-Mar-22 09:31N 60°32' E 027°10'0 0.0
2017-Mar-22 08:31N 60°32' E 027°10'0 0.0
2017-Mar-22 07:28N 60°32' E 027°10'0 0.0
2017-Mar-22 06:28N 60°32' E 027°10'0 0.0
2017-Mar-22 05:31N 60°32' E 027°10'0 0.0
2017-Mar-22 04:22N 60°32' E 027°10'0 0.0
2017-Mar-22 03:31N 60°32' E 027°10'0 0.0
2017-Mar-22 02:31N 60°32' E 027°10'0 0.0
2017-Mar-22 01:33N 60°32' E 027°10'0 0.0
2017-Mar-22 00:33N 60°32' E 027°10'0 0.0
2017-Mar-21 23:33N 60°32' E 027°10'0 0.0
2017-Mar-21 22:33N 60°32' E 027°10'0 0.0
2017-Mar-21 21:33N 60°32' E 027°10'0 0.0
2017-Mar-21 20:33N 60°32' E 027°10'0 0.0
2017-Mar-21 19:33N 60°32' E 027°10'0 0.0
2017-Mar-21 18:33N 60°32' E 027°10'0 0.0
2017-Mar-21 17:33N 60°32' E 027°10'0 0.0
2017-Mar-21 16:33N 60°32' E 027°10'0 0.0
2017-Mar-21 15:33N 60°32' E 027°10'0 0.0
2017-Mar-21 14:30N 60°32' E 027°10'0 0.0
2017-Mar-21 13:33N 60°32' E 027°10'0 0.0
2017-Mar-21 12:27N 60°32' E 027°10'0 0.0
2017-Mar-21 11:33N 60°32' E 027°10'0 0.0
2017-Mar-21 10:33N 60°32' E 027°10'0 0.0
2017-Mar-21 09:33N 60°32' E 027°10'0 0.0
2017-Mar-21 08:30N 60°32' E 027°10'0 0.0
2017-Mar-21 07:33N 60°32' E 027°10'0 0.0
2017-Mar-21 06:33N 60°32' E 027°10'0 0.0
2017-Mar-21 05:33N 60°32' E 027°10'0 0.0
2017-Mar-21 04:33N 60°32' E 027°10'0 0.0
2017-Mar-21 03:33N 60°32' E 027°10'0 0.0
2017-Mar-21 02:33N 60°32' E 027°10'0 0.0
2017-Mar-21 01:33N 60°32' E 027°10'0 0.0
2017-Mar-21 00:33N 60°32' E 027°10'0 0.0
2017-Mar-20 23:33N 60°32' E 027°10'0 0.0
2017-Mar-20 22:33N 60°32' E 027°10'0 0.0
2017-Mar-20 21:33N 60°32' E 027°10'0 0.0
2017-Mar-20 20:33N 60°32' E 027°10'0 0.0
2017-Mar-20 19:33N 60°32' E 027°10'0 0.0
2017-Mar-20 18:33N 60°32' E 027°10'0 0.0
2017-Mar-20 17:33N 60°32' E 027°10'0 0.0
2017-Mar-20 16:33N 60°32' E 027°10'0 0.0
2017-Mar-20 15:30N 60°32' E 027°10'0 0.0
2017-Mar-20 14:33N 60°32' E 027°10'0 0.0
2017-Mar-20 13:33N 60°32' E 027°10'0 0.0
2017-Mar-20 12:33N 60°32' E 027°10'0 0.0
2017-Mar-20 11:32N 60°32' E 027°10'0 0.0
2017-Mar-20 10:30N 60°32' E 027°10'0 0.0
2017-Mar-20 09:33N 60°32' E 027°10'0 0.0
2017-Mar-20 08:33N 60°32' E 027°10'0 0.0
2017-Mar-20 07:33N 60°32' E 027°10'0 0.0
2017-Mar-20 06:33N 60°32' E 027°10'0 0.0
2017-Mar-20 05:27N 60°32' E 027°10'0 0.0
2017-Mar-20 04:25N 60°32' E 027°10'0 0.0
2017-Mar-20 03:30N 60°32' E 027°10'0 0.0
2017-Mar-20 02:18N 60°32' E 027°10'0 0.0
2017-Mar-20 01:29N 60°32' E 027°10'0 0.0
2017-Mar-19 23:12N 60°32' E 027°10'0 0.0
2017-Mar-19 18:32N 60°32' E 027°10'0 0.0
2017-Mar-19 17:27N 60°32' E 027°10'0 0.0
2017-Mar-19 11:31N 60°32' E 027°10'0 0.4
2017-Mar-19 10:33N 60°32' E 027°11'9 8.7
2017-Mar-19 09:33N 60°26' E 026°58'1010.4
2017-Mar-19 08:33N 60°21' E 026°39'1110.7
2017-Mar-19 07:33N 60°13' E 026°24'10 9.9
2017-Mar-19 06:31N 60°05' E 026°11'68 8.5
2017-Mar-18 22:33N 59°47' E 024°01'9 8.7
2017-Mar-18 21:33N 59°44' E 023°44'9 8.7
2017-Mar-18 20:33N 59°41' E 023°28'9 8.6
2017-Mar-18 19:31N 59°39' E 023°11'29 9.1
2017-Mar-18 16:22N 59°36' E 022°15'8 9.3
2017-Mar-18 15:33N 59°35' E 021°59'9 9.4
2017-Mar-18 14:33N 59°35' E 021°41'9 9.4
2017-Mar-18 13:33N 59°34' E 021°23'10 9.3
2017-Mar-18 12:30N 59°36' E 021°04'  
Track history (hours):
 
Tides and Currents Weather Stations Pressure Air Temp Water Temp Dewpoint Dewpoint Depression Visibility Wind Speed Wind Dir Waves Ship Positions

Bothnia

Last reported at 2017-Mar-27 20:33 UTC. Time now 2017-Mar-29 09:22 UTC.
Position N 58°37' E 012°43'.

Length 82 m; draft 4.5 m.

Type: Cargo ship. MMSI: 244741000.

Date/timePositionNaut miles runAvg speedWind from/ knotsBaromVisibWave heightAir tempDewpointWater temp
2017-Mar-27 20:33N 58°37' E 012°43'1111.3
2017-Mar-27 19:33N 58°29' E 012°30'9 8.7
2017-Mar-27 18:33N 58°22' E 012°19'3 2.7
2017-Mar-27 17:33N 58°19' E 012°19'4 3.7
2017-Mar-27 16:33N 58°16' E 012°16'0 0.3
2017-Mar-27 15:33N 58°16' E 012°15'5 5.3
2017-Mar-27 14:34N 58°12' E 012°08'6 4.7
2017-Mar-27 13:12N 58°06' E 012°09'5 8.3
2017-Mar-27 12:33N 58°00' E 012°08'8 8.5
2017-Mar-27 11:33N 57°53' E 012°02'6 6.3
2017-Mar-27 10:33N 57°46' E 012°00'5 5.5
2017-Mar-27 09:33N 57°42' E 011°55'9 9.0
2017-Mar-27 08:33N 57°37' E 011°41'10 9.7
2017-Mar-27 07:33N 57°27' E 011°41'9 9.2
2017-Mar-27 06:33N 57°19' E 011°48'5610.7
2017-Mar-27 01:18N 56°25' E 012°21'911.6
2017-Mar-27 00:33N 56°17' E 012°25'1211.7
2017-Mar-26 23:33N 56°06' E 012°34'1110.6
2017-Mar-26 22:34N 55°57' E 012°43'1111.0
2017-Mar-26 21:33N 55°46' E 012°42'1111.2
2017-Mar-26 20:34N 55°35' E 012°42'1111.2
2017-Mar-26 19:33N 55°24' E 012°41'9 9.1
2017-Mar-26 18:34N 55°16' E 012°51'1110.8
2017-Mar-26 17:33N 55°15' E 013°10'1111.2
2017-Mar-26 16:33N 55°15' E 013°29'1111.0
2017-Mar-26 15:32N 55°14' E 013°49'1111.4
2017-Mar-26 14:33N 55°14' E 014°09'1010.4
2017-Mar-26 13:33N 55°19' E 014°25'1110.9
2017-Mar-26 12:33N 55°27' E 014°38'1110.8
2017-Mar-26 11:34N 55°32' E 014°54'1111.1
2017-Mar-26 10:33N 55°38' E 015°11'1111.3
2017-Mar-26 09:34N 55°43' E 015°28'1111.3
2017-Mar-26 08:33N 55°49' E 015°46'1111.4
2017-Mar-26 07:33N 55°55' E 016°03'1111.4
2017-Mar-26 06:33N 56°00' E 016°21'1211.5
2017-Mar-26 05:33N 56°06' E 016°39'1111.4
2017-Mar-26 04:33N 56°13' E 016°55'36611.1
2017-Mar-24 19:33N 60°01' E 025°58'1111.2
2017-Mar-24 18:33N 60°08' E 026°15'1110.7
2017-Mar-24 17:33N 60°16' E 026°29'1111.3
2017-Mar-24 16:33N 60°22' E 026°48'10 9.7
2017-Mar-24 15:33N 60°24' E 027°07'8 8.1
2017-Mar-24 14:33N 60°32' E 027°10'0 0.0
2017-Mar-22 12:17N 60°32' E 027°10'0 0.0
2017-Mar-22 11:32N 60°32' E 027°10'1 0.7
2017-Mar-22 10:33N 60°32' E 027°11'1 0.5
2017-Mar-22 09:31N 60°32' E 027°10'0 0.0
2017-Mar-22 08:31N 60°32' E 027°10'0 0.0
2017-Mar-22 07:28N 60°32' E 027°10'0 0.0
2017-Mar-22 06:28N 60°32' E 027°10'0 0.0
2017-Mar-22 05:31N 60°32' E 027°10'0 0.0
2017-Mar-22 04:22N 60°32' E 027°10'0 0.0
2017-Mar-22 03:31N 60°32' E 027°10'0 0.0
2017-Mar-22 02:31N 60°32' E 027°10'0 0.0
2017-Mar-22 01:33N 60°32' E 027°10'0 0.0
2017-Mar-22 00:33N 60°32' E 027°10'0 0.0
2017-Mar-21 23:33N 60°32' E 027°10'0 0.0
2017-Mar-21 22:33N 60°32' E 027°10'0 0.0
2017-Mar-21 21:33N 60°32' E 027°10'0 0.0
2017-Mar-21 20:33N 60°32' E 027°10'0 0.0
2017-Mar-21 19:33N 60°32' E 027°10'0 0.0
2017-Mar-21 18:33N 60°32' E 027°10'0 0.0
2017-Mar-21 17:33N 60°32' E 027°10'0 0.0
2017-Mar-21 16:33N 60°32' E 027°10'0 0.0
2017-Mar-21 15:33N 60°32' E 027°10'0 0.0
2017-Mar-21 14:30N 60°32' E 027°10'0 0.0
2017-Mar-21 13:33N 60°32' E 027°10'0 0.0
2017-Mar-21 12:27N 60°32' E 027°10'0 0.0
2017-Mar-21 11:33N 60°32' E 027°10'0 0.0
2017-Mar-21 10:33N 60°32' E 027°10'0 0.0
2017-Mar-21 09:33N 60°32' E 027°10'0 0.0
2017-Mar-21 08:30N 60°32' E 027°10'0 0.0
2017-Mar-21 07:33N 60°32' E 027°10'0 0.0
2017-Mar-21 06:33N 60°32' E 027°10'0 0.0
2017-Mar-21 05:33N 60°32' E 027°10'0 0.0
2017-Mar-21 04:33N 60°32' E 027°10'0 0.0
2017-Mar-21 03:33N 60°32' E 027°10'0 0.0
2017-Mar-21 02:33N 60°32' E 027°10'0 0.0
2017-Mar-21 01:33N 60°32' E 027°10'0 0.0
2017-Mar-21 00:33N 60°32' E 027°10'0 0.0
2017-Mar-20 23:33N 60°32' E 027°10'0 0.0
2017-Mar-20 22:33N 60°32' E 027°10'0 0.0
2017-Mar-20 21:33N 60°32' E 027°10'0 0.0
2017-Mar-20 20:33N 60°32' E 027°10'0 0.0
2017-Mar-20 19:33N 60°32' E 027°10'0 0.0
2017-Mar-20 18:33N 60°32' E 027°10'0 0.0
2017-Mar-20 17:33N 60°32' E 027°10'0 0.0
2017-Mar-20 16:33N 60°32' E 027°10'0 0.0
2017-Mar-20 15:30N 60°32' E 027°10'0 0.0
2017-Mar-20 14:33N 60°32' E 027°10'0 0.0
2017-Mar-20 13:33N 60°32' E 027°10'0 0.0
2017-Mar-20 12:33N 60°32' E 027°10'0 0.0
2017-Mar-20 11:32N 60°32' E 027°10'0 0.0
2017-Mar-20 10:30N 60°32' E 027°10'0 0.0
2017-Mar-20 09:33N 60°32' E 027°10'0 0.0
2017-Mar-20 08:33N 60°32' E 027°10'0 0.0
2017-Mar-20 07:33N 60°32' E 027°10'0 0.0
2017-Mar-20 06:33N 60°32' E 027°10'0 0.0
2017-Mar-20 05:27N 60°32' E 027°10'0 0.0
2017-Mar-20 04:25N 60°32' E 027°10'0 0.0
2017-Mar-20 03:30N 60°32' E 027°10'0 0.0
2017-Mar-20 02:18N 60°32' E 027°10'0 0.0
2017-Mar-20 01:29N 60°32' E 027°10'0 0.0
2017-Mar-19 23:12N 60°32' E 027°10'0 0.0
2017-Mar-19 18:32N 60°32' E 027°10'0 0.0
2017-Mar-19 17:27N 60°32' E 027°10'0 0.0
2017-Mar-19 11:31N 60°32' E 027°10'0 0.4
2017-Mar-19 10:33N 60°32' E 027°11'9 8.7
2017-Mar-19 09:33N 60°26' E 026°58'1010.4
2017-Mar-19 08:33N 60°21' E 026°39'1110.7
2017-Mar-19 07:33N 60°13' E 026°24'10 9.9
2017-Mar-19 06:31N 60°05' E 026°11'68 8.5
2017-Mar-18 22:33N 59°47' E 024°01'9 8.7
2017-Mar-18 21:33N 59°44' E 023°44'9 8.7
2017-Mar-18 20:33N 59°41' E 023°28'9 8.6
2017-Mar-18 19:31N 59°39' E 023°11'29 9.1
2017-Mar-18 16:22N 59°36' E 022°15'8 9.3
2017-Mar-18 15:33N 59°35' E 021°59'9 9.4
2017-Mar-18 14:33N 59°35' E 021°41'9 9.4
2017-Mar-18 13:33N 59°34' E 021°23'10 9.3
2017-Mar-18 12:30N 59°36' E 021°04'  

Dump ship's entire track history